Time;durP1;ratioP1;P1;durP2;ratioP2;P2;SDS_P1;SDS_P2;PMS_P1;PMS_P2;Temp;Humidity;BMP_temperature;BMP_pressure;BME280_temperature;BME280_humidity;BME280_pressure;Samples;Min_cycle;Max_cycle;Signal;HPM_P1;HPM_P2
2022/09/06 00:00:09;;;;;;;4.80;4.50;;;17.40;99.90;;;;;;4973190;28;20448;-89
2022/09/06 00:02:35;;;;;;;4.70;4.40;;;17.30;99.90;;;;;;4978036;28;20906;-88
2022/09/06 00:05:01;;;;;;;5.77;4.57;;;17.30;99.90;;;;;;4982323;28;20514;-87
2022/09/06 00:07:26;;;;;;;4.63;4.33;;;17.20;99.90;;;;;;4980440;28;20546;-87
2022/09/06 00:09:53;;;;;;;4.50;4.10;;;17.20;99.90;;;;;;4979029;28;20459;-88
2022/09/06 00:12:18;;;;;;;4.70;4.30;;;17.20;99.90;;;;;;4980110;28;20177;-88
2022/09/06 00:14:44;;;;;;;4.43;4.10;;;17.30;99.90;;;;;;4993593;28;20459;-88
2022/09/06 00:17:09;;;;;;;5.10;4.70;;;17.30;99.90;;;;;;4976761;28;20236;-88
2022/09/06 00:19:35;;;;;;;5.00;4.60;;;17.20;99.90;;;;;;4973793;28;20276;-88
2022/09/06 00:22:00;;;;;;;4.77;4.30;;;17.20;99.90;;;;;;4973310;28;20190;-88
2022/09/06 00:24:26;;;;;;;5.30;4.50;;;17.20;99.90;;;;;;4981800;28;20391;-89
2022/09/06 00:26:51;;;;;;;4.57;4.20;;;17.20;99.90;;;;;;4978361;28;20223;-88
2022/09/06 00:29:17;;;;;;;5.13;4.73;;;17.30;99.90;;;;;;4980024;28;20193;-88
2022/09/06 00:31:43;;;;;;;5.30;4.90;;;17.30;99.90;;;;;;4984702;28;20251;-88
2022/09/06 00:34:08;;;;;;;5.60;4.50;;;17.30;99.90;;;;;;4981056;28;20302;-88
2022/09/06 00:36:34;;;;;;;4.70;4.30;;;17.40;99.90;;;;;;4977037;28;20261;-88
2022/09/06 00:38:59;;;;;;;5.00;4.27;;;17.40;99.90;;;;;;4976378;28;21661;-89
2022/09/06 00:41:25;;;;;;;4.60;4.30;;;17.40;99.90;;;;;;4973934;28;20532;-89
2022/09/06 00:43:50;;;;;;;4.67;4.33;;;17.40;99.90;;;;;;4977105;28;20214;-86
2022/09/06 00:46:26;;;;;;;6.60;4.47;;;17.50;99.90;;;;;;4988877;28;20666;-88
2022/09/06 00:49:00;;;;;;;4.90;4.50;;;17.40;99.90;;;;;;4975232;28;20844;-89
2022/09/06 00:51:29;;;;;;;4.97;4.50;;;17.40;99.90;;;;;;4972668;28;20435;-89
2022/09/06 00:53:55;;;;;;;5.73;5.20;;;17.40;99.90;;;;;;4967419;28;20781;-88
2022/09/06 00:56:22;;;;;;;5.50;5.07;;;17.40;99.90;;;;;;4975382;28;20449;-89
2022/09/06 00:58:48;;;;;;;5.30;4.90;;;17.40;99.90;;;;;;4991812;28;20502;-89
2022/09/06 01:01:14;;;;;;;5.87;5.37;;;17.40;99.90;;;;;;4975422;28;20444;-89
2022/09/06 01:03:40;;;;;;;6.00;5.50;;;17.40;99.90;;;;;;4979091;28;20882;-89
2022/09/06 01:06:16;;;;;;;6.33;5.83;;;17.40;99.90;;;;;;4977208;28;20208;-89
2022/09/06 01:09:01;;;;;;;7.10;6.50;;;17.40;99.90;;;;;;5000766;28;20486;-90
2022/09/06 01:11:46;;;;;;;6.30;5.80;;;17.50;99.90;;;;;;4989294;28;20440;-89
2022/09/06 01:14:16;;;;;;;7.17;6.67;;;17.60;99.90;;;;;;4999075;28;20519;-89
2022/09/06 01:17:07;;;;;;;6.93;6.33;;;17.60;99.90;;;;;;4977578;28;20548;-89
2022/09/06 01:19:55;;;;;;;7.67;6.87;;;17.60;99.90;;;;;;4978223;28;20861;-88
2022/09/06 01:22:58;;;;;;;6.80;6.30;;;17.60;99.90;;;;;;4973238;28;21041;-88
2022/09/06 01:26:00;;;;;;;7.27;6.67;;;17.60;99.90;;;;;;4994595;28;20479;-89
2022/09/06 01:28:31;;;;;;;6.23;5.73;;;17.60;99.90;;;;;;4989623;28;20440;-88
2022/09/06 01:31:15;;;;;;;7.23;6.53;;;17.50;99.90;;;;;;4965718;28;20433;-89
2022/09/06 01:34:11;;;;;;;7.73;7.13;;;17.40;99.90;;;;;;4974037;28;20443;-89
2022/09/06 01:36:51;;;;;;;6.97;6.37;;;17.40;99.90;;;;;;4975537;28;20487;-89
2022/09/06 01:39:26;;;;;;;6.83;6.23;;;17.30;99.90;;;;;;4979493;28;21036;-89
2022/09/06 01:41:54;;;;;;;6.90;6.20;;;17.20;99.90;;;;;;4975935;28;20432;-88
2022/09/06 01:44:21;;;;;;;7.70;7.00;;;17.20;99.90;;;;;;4977835;28;20479;-89
2022/09/06 01:47:16;;;;;;;6.60;6.00;;;17.20;99.90;;;;;;4975615;28;20749;-89
2022/09/06 01:50:00;;;;;;;7.33;6.53;;;17.20;99.90;;;;;;4975521;28;20449;-88
2022/09/06 01:52:38;;;;;;;6.50;6.00;;;17.20;99.90;;;;;;4968478;28;20471;-88
2022/09/06 01:55:12;;;;;;;6.50;6.00;;;17.30;99.90;;;;;;4983422;28;20435;-87
2022/09/06 01:57:51;;;;;;;7.13;6.07;;;17.30;99.90;;;;;;4971853;28;20442;-88
2022/09/06 02:00:19;;;;;;;5.70;5.20;;;17.30;99.90;;;;;;4974094;28;20501;-88
2022/09/06 02:02:51;;;;;;;6.30;5.80;;;17.30;99.90;;;;;;4975414;28;20789;-88
2022/09/06 02:05:27;;;;;;;6.70;6.03;;;17.30;99.90;;;;;;4992231;28;20488;-88
2022/09/06 02:07:58;;;;;;;5.97;5.47;;;17.30;99.90;;;;;;4975072;28;20436;-87
2022/09/06 02:10:30;;;;;;;8.20;6.27;;;17.30;99.90;;;;;;4976914;28;20450;-87
2022/09/06 02:13:00;;;;;;;5.70;5.20;;;17.30;99.90;;;;;;4974951;28;20582;-88
2022/09/06 02:15:31;;;;;;;6.37;5.87;;;17.30;99.90;;;;;;4969655;28;20777;-88
2022/09/06 02:18:12;;;;;;;6.10;5.60;;;17.30;99.90;;;;;;4978342;28;20479;-88
2022/09/06 02:20:44;;;;;;;6.53;6.00;;;17.30;99.90;;;;;;4970526;28;20444;-88
2022/09/06 02:23:10;;;;;;;9.30;6.00;;;17.30;99.90;;;;;;4976726;28;20451;-88
2022/09/06 02:25:49;;;;;;;7.10;6.13;;;17.30;99.90;;;;;;4974540;28;20448;-88
2022/09/06 02:28:16;;;;;;;6.83;6.23;;;17.30;99.90;;;;;;4970496;28;20526;-88
2022/09/06 02:30:50;;;;;;;6.10;5.60;;;17.30;99.90;;;;;;4977474;28;20444;-88
2022/09/06 02:33:23;;;;;;;6.50;5.90;;;17.30;99.90;;;;;;4974252;28;20939;-88
2022/09/06 02:35:52;;;;;;;5.80;5.40;;;17.20;99.90;;;;;;4980880;28;20454;-88
2022/09/06 02:38:20;;;;;;;6.70;6.10;;;17.20;99.90;;;;;;4987683;28;21025;-88
2022/09/06 02:40:50;;;;;;;6.70;6.10;;;17.00;99.90;;;;;;4972753;28;20545;-88
2022/09/06 02:43:16;;;;;;;7.37;6.20;;;16.80;99.90;;;;;;4972010;28;20881;-88
2022/09/06 02:45:41;;;;;;;7.87;6.30;;;16.70;99.90;;;;;;4977013;28;20448;-88
2022/09/06 02:48:07;;;;;;;7.60;5.93;;;16.90;99.90;;;;;;4973109;28;20236;-88
2022/09/06 02:50:32;;;;;;;9.27;6.27;;;17.00;99.90;;;;;;4976275;28;20192;-88
2022/09/06 02:53:05;;;;;;;7.17;6.43;;;17.20;99.90;;;;;;4974619;28;20185;-88
2022/09/06 02:55:31;;;;;;;6.03;5.53;;;17.30;99.90;;;;;;4972898;28;20225;-88
2022/09/06 02:57:57;;;;;;;6.47;5.73;;;17.50;99.90;;;;;;4972130;28;20451;-88
2022/09/06 03:00:23;;;;;;;6.27;5.77;;;17.70;99.90;;;;;;4974950;28;20825;-88
2022/09/06 03:02:51;;;;;;;7.97;6.20;;;17.70;99.90;;;;;;4968038;28;20574;-88
2022/09/06 03:05:19;;;;;;;7.20;6.50;;;17.80;99.90;;;;;;4975084;28;20216;-88
2022/09/06 03:07:44;;;;;;;5.60;5.20;;;17.80;99.90;;;;;;4989297;28;20437;-88
2022/09/06 03:10:10;;;;;;;6.67;6.07;;;17.80;99.90;;;;;;4978304;28;20454;-88
2022/09/06 03:12:35;;;;;;;9.00;5.77;;;17.70;99.90;;;;;;4977410;28;20177;-88
2022/09/06 03:15:01;;;;;;;6.17;5.50;;;17.70;99.90;;;;;;4980018;28;20215;-89
2022/09/06 03:17:26;;;;;;;5.37;4.97;;;17.80;99.90;;;;;;4973245;28;20726;-89
2022/09/06 03:19:54;;;;;;;5.47;4.97;;;18.00;99.90;;;;;;4970790;28;20290;-87
2022/09/06 03:22:20;;;;;;;6.13;5.63;;;18.40;99.90;;;;;;4977343;28;20655;-87
2022/09/06 03:24:45;;;;;;;6.00;5.40;;;18.50;99.90;;;;;;4972637;28;20483;-89
2022/09/06 03:27:11;;;;;;;5.93;5.47;;;18.40;99.90;;;;;;4993281;28;20185;-89
2022/09/06 03:29:36;;;;;;;5.40;4.93;;;18.30;99.90;;;;;;4976096;28;20200;-89
2022/09/06 03:32:02;;;;;;;5.27;4.87;;;18.30;99.90;;;;;;4984379;28;20212;-89
2022/09/06 03:34:30;;;;;;;5.67;5.27;;;18.30;99.90;;;;;;4995637;28;20182;-88
2022/09/06 03:37:06;;;;;;;7.27;6.07;;;18.00;99.90;;;;;;4978805;28;20215;-88
2022/09/06 03:39:32;;;;;;;7.10;5.80;;;17.60;99.90;;;;;;4981100;28;20529;-88
2022/09/06 03:42:03;;;;;;;6.50;5.80;;;17.40;99.90;;;;;;4978511;28;20448;-88
2022/09/06 03:44:32;;;;;;;6.07;5.57;;;17.10;99.90;;;;;;4980512;28;20818;-88
2022/09/06 03:47:01;;;;;;;7.13;6.37;;;16.90;99.90;;;;;;4970989;28;20437;-88
2022/09/06 03:49:51;;;;;;;6.47;5.97;;;16.70;99.90;;;;;;4981307;28;20795;-87
2022/09/06 03:52:28;;;;;;;6.80;6.13;;;16.70;99.90;;;;;;4975246;28;20432;-86
2022/09/06 03:55:14;;;;;;;6.47;5.53;;;16.70;99.90;;;;;;4976222;28;20869;-88
2022/09/06 03:58:00;;;;;;;5.97;5.40;;;16.90;99.90;;;;;;4968319;28;20444;-88
2022/09/06 04:00:33;;;;;;;6.60;6.10;;;17.00;99.90;;;;;;4970628;28;20595;-88
2022/09/06 04:03:12;;;;;;;6.37;5.87;;;17.00;99.90;;;;;;4997148;28;20440;-87
2022/09/06 04:05:38;;;;;;;6.50;6.00;;;17.00;99.90;;;;;;4978483;28;21698;-86
2022/09/06 04:08:04;;;;;;;6.70;6.20;;;17.00;99.90;;;;;;4969782;28;20445;-86
2022/09/06 04:10:30;;;;;;;7.47;6.47;;;17.00;99.90;;;;;;4971418;28;20216;-86
2022/09/06 04:12:55;;;;;;;6.70;6.20;;;16.90;99.90;;;;;;4974523;28;20863;-86
2022/09/06 04:15:21;;;;;;;7.73;7.10;;;17.00;99.90;;;;;;4974137;28;20234;-87
2022/09/06 04:17:47;;;;;;;7.33;6.73;;;17.00;99.90;;;;;;4978235;28;20687;-86
2022/09/06 04:20:13;;;;;;;7.70;7.00;;;17.10;99.90;;;;;;4978408;28;20182;-88
2022/09/06 04:22:39;;;;;;;6.73;6.13;;;17.10;99.90;;;;;;4976752;28;20292;-86
2022/09/06 04:25:05;;;;;;;10.30;6.47;;;17.00;99.90;;;;;;4977336;28;21072;-87
2022/09/06 04:27:30;;;;;;;7.67;7.03;;;17.00;99.90;;;;;;4970886;28;20702;-85
2022/09/06 04:29:57;;;;;;;8.73;7.80;;;17.00;99.90;;;;;;4972532;28;20709;-86
2022/09/06 04:32:23;;;;;;;7.30;6.60;;;17.00;99.90;;;;;;4974148;28;20534;-87
2022/09/06 04:38:04;;;;;;;6.83;6.30;;;17.00;99.90;;;;;;4950408;28;20690;-83
2022/09/06 04:40:35;;;;;;;6.40;5.80;;;17.00;99.90;;;;;;4991947;28;20471;-85
2022/09/06 04:43:04;;;;;;;7.10;6.50;;;16.90;99.90;;;;;;4973004;28;20498;-87
2022/09/06 04:45:34;;;;;;;7.13;6.43;;;16.80;99.90;;;;;;4975807;28;20494;-89
2022/09/06 04:48:19;;;;;;;7.10;6.40;;;16.80;99.90;;;;;;4995786;28;20441;-86
2022/09/06 04:50:46;;;;;;;6.47;5.87;;;16.80;99.90;;;;;;4958464;28;20464;-86
2022/09/06 04:53:12;;;;;;;7.43;6.10;;;16.80;99.90;;;;;;4976132;28;20451;-87
2022/09/06 04:55:38;;;;;;;7.60;6.90;;;16.80;99.90;;;;;;4971165;28;20448;-86
2022/09/06 04:58:05;;;;;;;7.40;6.70;;;16.80;99.90;;;;;;4974742;28;20284;-87
2022/09/06 05:00:32;;;;;;;7.43;6.73;;;16.80;99.90;;;;;;4978612;28;20177;-86
2022/09/06 05:02:58;;;;;;;7.20;6.60;;;16.70;99.90;;;;;;4976949;28;20450;-86
2022/09/06 05:05:24;;;;;;;7.57;6.83;;;16.80;99.90;;;;;;4961032;28;21049;-89
2022/09/06 05:07:51;;;;;;;17.20;15.80;;;16.80;99.90;;;;;;4973080;28;20475;-89
2022/09/06 05:10:17;;;;;;;8.80;8.00;;;16.90;99.90;;;;;;4965307;28;20919;-89
2022/09/06 05:12:43;;;;;;;8.77;7.97;;;16.90;99.90;;;;;;4971050;28;20436;-89
2022/09/06 05:15:09;;;;;;;6.93;6.30;;;17.00;99.90;;;;;;4974154;28;20332;-88
2022/09/06 05:17:34;;;;;;;7.80;7.10;;;17.00;99.90;;;;;;4975968;28;20227;-89
2022/09/06 05:20:00;;;;;;;7.00;6.40;;;17.00;99.90;;;;;;4982990;28;20436;-89
2022/09/06 05:22:25;;;;;;;7.43;6.70;;;17.00;99.90;;;;;;4975340;28;20221;-88
2022/09/06 05:24:51;;;;;;;7.30;6.70;;;16.90;99.90;;;;;;4983084;28;20223;-88
2022/09/06 05:27:17;;;;;;;7.53;6.90;;;16.80;99.90;;;;;;4987075;28;20197;-89
2022/09/06 05:29:42;;;;;;;8.60;7.30;;;16.80;99.90;;;;;;4977114;28;20259;-89
2022/09/06 05:32:08;;;;;;;10.07;7.87;;;16.90;99.90;;;;;;4983868;28;20208;-89
2022/09/06 05:34:34;;;;;;;7.70;7.10;;;16.90;99.90;;;;;;4975876;28;20193;-88
2022/09/06 05:37:00;;;;;;;7.13;6.50;;;17.00;99.90;;;;;;4977250;28;20279;-88
2022/09/06 05:39:26;;;;;;;10.27;6.90;;;17.10;99.90;;;;;;4978938;28;20786;-88
2022/09/06 05:41:51;;;;;;;7.70;7.00;;;17.30;99.90;;;;;;4976091;28;20769;-89
2022/09/06 05:44:17;;;;;;;7.90;7.10;;;17.30;99.90;;;;;;4979916;28;20227;-88
2022/09/06 05:46:44;;;;;;;7.97;7.33;;;17.40;99.90;;;;;;4980326;28;20682;-88
2022/09/06 05:49:33;;;;;;;8.10;7.50;;;17.40;99.90;;;;;;4978446;28;20573;-88
2022/09/06 05:51:59;;;;;;;8.07;7.47;;;17.50;99.90;;;;;;4974258;28;20765;-88
2022/09/06 05:54:24;;;;;;;13.93;7.63;;;17.50;99.90;;;;;;4976531;28;20483;-88
2022/09/06 05:56:50;;;;;;;7.40;6.70;;;17.50;99.90;;;;;;4978141;28;20834;-89
2022/09/06 05:59:17;;;;;;;6.90;6.40;;;17.50;99.90;;;;;;4975210;28;20216;-88
2022/09/06 06:01:53;;;;;;;10.07;6.17;;;17.70;99.90;;;;;;4975216;28;20190;-89
2022/09/06 06:04:21;;;;;;;6.77;6.03;;;17.80;99.90;;;;;;4991121;28;21006;-89
2022/09/06 06:06:47;;;;;;;6.80;5.67;;;17.80;99.90;;;;;;4975694;28;20984;-88
2022/09/06 06:09:13;;;;;;;7.27;5.70;;;17.80;99.90;;;;;;4995473;28;20519;-88
2022/09/06 06:11:40;;;;;;;6.80;6.20;;;17.90;99.90;;;;;;4971402;28;20567;-88
2022/09/06 06:14:07;;;;;;;6.80;5.53;;;17.90;99.90;;;;;;4975403;28;20279;-88
2022/09/06 06:16:32;;;;;;;7.17;5.90;;;18.00;99.90;;;;;;4975666;28;20449;-88
2022/09/06 06:18:59;;;;;;;6.60;6.10;;;18.10;99.90;;;;;;4986409;28;20448;-89
2022/09/06 06:21:27;;;;;;;6.37;5.90;;;18.10;99.90;;;;;;4977455;28;20181;-89
2022/09/06 06:23:55;;;;;;;6.13;5.40;;;18.20;99.90;;;;;;4974772;28;20479;-89
2022/09/06 06:26:21;;;;;;;6.67;6.00;;;18.30;99.90;;;;;;4974109;28;20451;-88
2022/09/06 06:28:47;;;;;;;12.00;6.90;;;18.50;99.90;;;;;;4979919;28;20436;-88
2022/09/06 06:31:13;;;;;;;7.20;6.50;;;18.50;99.90;;;;;;4978357;28;20836;-88
2022/09/06 06:33:39;;;;;;;6.73;6.23;;;18.40;99.90;;;;;;4978453;28;20563;-88
2022/09/06 06:36:06;;;;;;;6.17;5.67;;;18.40;99.90;;;;;;4976583;28;20196;-88
2022/09/06 06:38:37;;;;;;;6.63;6.10;;;18.40;99.90;;;;;;4977905;28;20783;-88
2022/09/06 06:41:05;;;;;;;6.70;6.10;;;18.40;99.90;;;;;;4975591;28;21029;-88
2022/09/06 06:43:37;;;;;;;7.70;6.20;;;18.40;99.90;;;;;;4983099;28;20831;-88
2022/09/06 06:46:11;;;;;;;7.37;6.60;;;18.40;99.90;;;;;;4972747;28;20895;-88
2022/09/06 06:48:40;;;;;;;6.73;6.20;;;18.50;99.90;;;;;;4976470;28;20478;-87
2022/09/06 06:51:11;;;;;;;7.07;6.47;;;18.50;99.90;;;;;;4975871;28;20471;-88
2022/09/06 06:53:37;;;;;;;7.03;6.30;;;18.40;99.90;;;;;;4994839;28;20499;-88
2022/09/06 06:56:20;;;;;;;8.27;6.53;;;18.50;99.90;;;;;;4978012;28;20440;-88
2022/09/06 06:58:48;;;;;;;8.10;6.77;;;18.60;99.90;;;;;;4974449;28;20185;-89
2022/09/06 07:01:34;;;;;;;6.90;6.27;;;18.60;99.90;;;;;;4977660;28;20428;-88
2022/09/06 07:04:04;;;;;;;6.80;6.23;;;18.70;99.90;;;;;;4977215;28;20511;-88
2022/09/06 07:06:55;;;;;;;6.77;6.17;;;18.70;99.90;;;;;;4984398;28;20455;-88
2022/09/06 07:09:23;;;;;;;13.90;12.60;;;18.80;99.90;;;;;;4998794;28;20446;-88
2022/09/06 07:11:54;;;;;;;7.47;6.87;;;18.90;99.90;;;;;;4980000;28;20440;-88
2022/09/06 07:14:20;;;;;;;6.30;5.70;;;19.10;99.90;;;;;;4979486;28;20634;-88
2022/09/06 07:16:46;;;;;;;8.03;7.10;;;19.30;99.90;;;;;;4978421;28;20527;-88
2022/09/06 07:19:11;;;;;;;5.63;5.23;;;19.60;99.90;;;;;;4998330;28;20550;-88
2022/09/06 07:21:37;;;;;;;6.20;5.70;;;19.80;99.90;;;;;;4981767;28;20221;-89
2022/09/06 07:24:06;;;;;;;5.73;5.33;;;19.90;99.90;;;;;;4982387;28;20212;-88
2022/09/06 07:26:32;;;;;;;6.30;5.10;;;20.00;99.90;;;;;;4977383;28;20186;-88
2022/09/06 07:29:02;;;;;;;6.70;5.87;;;20.00;99.90;;;;;;4994505;28;20460;-88
2022/09/06 07:31:31;;;;;;;6.47;5.80;;;19.90;99.90;;;;;;4979718;28;20490;-88
2022/09/06 07:33:57;;;;;;;7.57;5.20;;;19.80;99.90;;;;;;4981202;28;20539;-87
2022/09/06 07:36:22;;;;;;;6.50;6.00;;;19.70;99.90;;;;;;4990527;28;20431;-87
2022/09/06 07:38:50;;;;;;;5.60;5.10;;;19.60;99.90;;;;;;4978551;28;20443;-87
2022/09/06 07:41:17;;;;;;;5.60;5.20;;;19.60;99.90;;;;;;4977528;28;20266;-88
2022/09/06 07:44:10;;;;;;;6.40;5.60;;;19.60;99.90;;;;;;4993862;28;20468;-88
2022/09/06 07:46:36;;;;;;;6.20;5.60;;;19.80;99.90;;;;;;4984245;28;20832;-88
2022/09/06 07:49:04;;;;;;;7.17;6.27;;;20.00;99.90;;;;;;4984502;28;20522;-88
2022/09/06 07:51:29;;;;;;;6.17;5.70;;;20.20;99.90;;;;;;4978516;28;20182;-87
2022/09/06 07:54:16;;;;;;;6.20;5.70;;;20.30;99.90;;;;;;4982087;28;20501;-88
2022/09/06 07:56:42;;;;;;;5.60;5.10;;;20.40;99.90;;;;;;4992779;28;20181;-89
2022/09/06 07:59:08;;;;;;;5.73;5.20;;;20.40;99.90;;;;;;4975507;28;20428;-88
2022/09/06 08:01:54;;;;;;;5.57;5.07;;;20.50;99.90;;;;;;4978247;28;20248;-88
2022/09/06 08:04:22;;;;;;;6.37;5.77;;;20.60;99.90;;;;;;4980182;28;20578;-88
2022/09/06 08:07:06;;;;;;;10.17;5.50;;;20.70;99.90;;;;;;4982054;28;20531;-88
2022/09/06 08:09:58;;;;;;;5.80;5.30;;;20.70;99.90;;;;;;4976223;28;20436;-88
2022/09/06 08:12:44;;;;;;;5.63;5.13;;;20.80;99.90;;;;;;4978588;28;20441;-88
2022/09/06 08:15:15;;;;;;;7.10;5.60;;;21.00;99.90;;;;;;4966291;28;20445;-88
2022/09/06 08:17:40;;;;;;;5.50;5.00;;;21.10;99.90;;;;;;4978388;28;20462;-88
2022/09/06 08:20:07;;;;;;;5.50;4.80;;;21.10;99.90;;;;;;4983850;28;20953;-88
2022/09/06 08:22:35;;;;;;;5.60;5.10;;;21.10;99.90;;;;;;4979327;28;20635;-88
2022/09/06 08:25:15;;;;;;;5.90;5.50;;;21.10;99.90;;;;;;4981705;28;20843;-88
2022/09/06 08:27:41;;;;;;;5.57;5.07;;;21.10;99.90;;;;;;4976511;28;20435;-88
2022/09/06 08:30:07;;;;;;;5.77;4.97;;;21.20;99.90;;;;;;4980896;28;20496;-89
2022/09/06 08:32:37;;;;;;;5.43;5.03;;;21.30;99.90;;;;;;4974925;28;20192;-88
2022/09/06 08:35:03;;;;;;;6.53;5.93;;;21.50;99.90;;;;;;4979690;28;20788;-88
2022/09/06 08:37:35;;;;;;;5.97;5.20;;;21.70;99.90;;;;;;4982539;28;20468;-88
2022/09/06 08:40:01;;;;;;;6.33;4.93;;;21.90;99.90;;;;;;4977621;28;20200;-88
2022/09/06 08:42:27;;;;;;;7.27;5.50;;;22.10;99.90;;;;;;4979406;28;20448;-89
2022/09/06 08:44:54;;;;;;;5.23;4.83;;;22.20;99.90;;;;;;4981150;28;20209;-88
2022/09/06 08:47:20;;;;;;;5.87;5.20;;;22.40;99.90;;;;;;4978337;28;20169;-89
2022/09/06 08:50:07;;;;;;;5.77;5.23;;;22.40;99.90;;;;;;4978092;28;20509;-89
2022/09/06 08:52:45;;;;;;;6.50;5.07;;;22.60;99.90;;;;;;4974402;28;20448;-88
2022/09/06 08:55:29;;;;;;;5.97;5.47;;;22.80;99.90;;;;;;4981039;28;20424;-89
2022/09/06 08:58:24;;;;;;;5.87;5.37;;;22.90;99.90;;;;;;4981579;28;20669;-87
2022/09/06 09:01:05;;;;;;;5.30;4.80;;;22.90;99.90;;;;;;4994481;28;20440;-88
2022/09/06 09:03:38;;;;;;;6.30;5.30;;;23.10;99.90;;;;;;4982227;28;20790;-88
2022/09/06 09:06:06;;;;;;;5.77;5.27;;;23.20;99.90;;;;;;4986348;28;20453;-88
2022/09/06 09:09:00;;;;;;;5.60;5.20;;;23.40;99.90;;;;;;4980356;28;20436;-89
2022/09/06 09:11:27;;;;;;;5.60;5.10;;;23.70;99.90;;;;;;4977171;28;20947;-88
2022/09/06 09:13:53;;;;;;;7.00;5.40;;;24.00;99.90;;;;;;4972712;28;20583;-88
2022/09/06 09:16:19;;;;;;;5.80;5.00;;;24.30;99.90;;;;;;4992102;28;20574;-88
2022/09/06 09:18:49;;;;;;;5.40;4.90;;;24.70;99.90;;;;;;4977627;28;20908;-87
2022/09/06 09:21:19;;;;;;;7.53;5.70;;;25.00;99.90;;;;;;4979101;28;20444;-87
2022/09/06 09:23:52;;;;;;;5.53;4.97;;;25.10;99.90;;;;;;4973984;28;20802;-87
2022/09/06 09:26:19;;;;;;;6.37;4.40;;;24.80;99.90;;;;;;4979243;28;20452;-88
2022/09/06 09:29:11;;;;;;;5.77;5.17;;;24.50;99.90;;;;;;4975258;28;20440;-87
2022/09/06 09:31:52;;;;;;;6.03;5.63;;;24.50;99.90;;;;;;4978124;28;20485;-87
2022/09/06 09:34:32;;;;;;;8.53;5.30;;;24.40;99.90;;;;;;4978955;28;20448;-87
2022/09/06 09:37:19;;;;;;;9.17;5.43;;;24.40;99.90;;;;;;4986095;28;20493;-87
2022/09/06 09:39:49;;;;;;;6.07;5.00;;;24.40;99.90;;;;;;4975587;28;23048;-88
2022/09/06 09:42:27;;;;;;;5.63;5.13;;;24.40;99.90;;;;;;4963963;28;21074;-87
2022/09/06 09:44:55;;;;;;;5.97;5.47;;;24.20;99.90;;;;;;4980526;28;20476;-87
2022/09/06 09:47:30;;;;;;;7.07;4.87;;;24.20;99.90;;;;;;4982271;28;20432;-88
2022/09/06 09:49:56;;;;;;;6.17;5.57;;;24.30;99.90;;;;;;4984971;28;20648;-89
2022/09/06 09:52:26;;;;;;;6.53;5.03;;;24.20;99.90;;;;;;4987074;28;20433;-89
2022/09/06 09:54:55;;;;;;;5.77;5.27;;;24.20;99.90;;;;;;4978219;28;20485;-90
2022/09/06 09:57:21;;;;;;;5.80;5.30;;;24.00;99.90;;;;;;4984872;28;20420;-89
2022/09/06 09:59:53;;;;;;;5.20;4.80;;;24.20;99.90;;;;;;5006746;28;20883;-88
2022/09/06 10:02:30;;;;;;;8.17;4.60;;;24.30;99.90;;;;;;5002897;28;20450;-89
2022/09/06 10:05:19;;;;;;;5.83;5.00;;;24.40;99.90;;;;;;5004735;28;20871;-88
2022/09/06 10:07:52;;;;;;;7.80;5.23;;;24.60;99.90;;;;;;4976799;28;20834;-88
2022/09/06 10:10:37;;;;;;;5.23;4.77;;;24.90;99.90;;;;;;4979689;28;20522;-89
2022/09/06 10:13:09;;;;;;;6.50;5.20;;;24.90;99.90;;;;;;4992706;28;20454;-88
2022/09/06 10:15:37;;;;;;;7.17;5.33;;;24.80;99.90;;;;;;4971514;28;20476;-88
2022/09/06 10:18:03;;;;;;;11.13;5.53;;;24.90;99.90;;;;;;4978326;28;20670;-88
2022/09/06 10:20:44;;;;;;;6.13;5.00;;;25.00;99.90;;;;;;4976085;28;20452;-88
2022/09/06 10:23:18;;;;;;;8.63;4.60;;;25.20;99.90;;;;;;4976771;28;20185;-88
2022/09/06 10:25:45;;;;;;;5.17;4.67;;;25.30;99.90;;;;;;4979854;28;20483;-88
2022/09/06 10:28:17;;;;;;;7.23;4.60;;;25.50;99.90;;;;;;4996025;28;20468;-87
2022/09/06 10:31:12;;;;;;;9.03;4.57;;;25.80;99.90;;;;;;4994593;28;20439;-87
2022/09/06 10:33:56;;;;;;;7.50;4.77;;;26.30;99.90;;;;;;4994962;28;20435;-88
2022/09/06 10:36:34;;;;;;;8.43;5.13;;;26.80;99.90;;;;;;4989727;28;20544;-88
2022/09/06 10:39:17;;;;;;;8.03;4.60;;;26.50;99.90;;;;;;4980284;28;20456;-89
2022/09/06 10:41:56;;;;;;;8.77;4.80;;;26.20;99.90;;;;;;4979343;28;20468;-88
2022/09/06 10:44:38;;;;;;;6.63;4.13;;;26.50;99.90;;;;;;4978196;28;20479;-89
2022/09/06 10:47:14;;;;;;;6.30;4.60;;;27.40;99.00;;;;;;4992548;28;20842;-88
2022/09/06 10:49:44;;;;;;;5.07;4.00;;;28.00;97.90;;;;;;4977409;28;20439;-87
2022/09/06 10:52:14;;;;;;;5.10;3.77;;;27.90;96.50;;;;;;4972355;28;20441;-86
2022/09/06 10:54:40;;;;;;;9.70;3.70;;;27.60;96.90;;;;;;4976940;28;20448;-85
2022/09/06 10:57:12;;;;;;;8.37;4.70;;;27.60;96.70;;;;;;4975828;28;20471;-84
2022/09/06 10:59:40;;;;;;;9.13;4.10;;;27.50;97.40;;;;;;4992324;28;20460;-86
2022/09/06 11:02:28;;;;;;;6.77;3.97;;;27.20;97.30;;;;;;4972282;28;20849;-84
2022/09/06 11:04:57;;;;;;;4.17;3.80;;;27.40;97.40;;;;;;4994946;28;20522;-85
2022/09/06 11:07:46;;;;;;;7.80;4.20;;;27.10;97.50;;;;;;4996259;28;20432;-85
2022/09/06 11:10:23;;;;;;;9.90;4.97;;;27.10;97.70;;;;;;4977354;28;20432;-85
2022/09/06 11:13:00;;;;;;;4.80;4.30;;;27.10;97.80;;;;;;4975437;28;20574;-86
2022/09/06 11:15:32;;;;;;;6.70;4.20;;;27.40;97.90;;;;;;4991080;28;20447;-86
2022/09/06 11:18:10;;;;;;;3.90;3.60;;;27.50;97.80;;;;;;4977743;28;20483;-85
2022/09/06 11:20:44;;;;;;;5.93;4.30;;;27.50;96.90;;;;;;4979977;28;20436;-85
2022/09/06 11:23:35;;;;;;;6.27;4.20;;;27.50;97.40;;;;;;4975277;28;20525;-85
2022/09/06 11:26:12;;;;;;;7.20;4.63;;;27.50;97.80;;;;;;4974176;28;20491;-86
2022/09/06 11:28:44;;;;;;;7.03;4.43;;;27.50;97.40;;;;;;4991603;28;21252;-86
2022/09/06 11:31:17;;;;;;;6.23;4.50;;;27.30;97.50;;;;;;4972879;28;20432;-86
2022/09/06 11:33:43;;;;;;;7.20;4.83;;;26.90;97.80;;;;;;4988505;28;21330;-85
2022/09/06 11:36:35;;;;;;;6.83;4.50;;;26.80;98.30;;;;;;4972176;28;20448;-87
2022/09/06 11:39:03;;;;;;;5.87;4.23;;;26.60;98.00;;;;;;4968102;28;20185;-86
2022/09/06 11:41:38;;;;;;;4.90;3.90;;;26.50;98.80;;;;;;4973484;28;20436;-86
2022/09/06 11:44:05;;;;;;;7.43;4.20;;;26.40;99.10;;;;;;4971932;28;20471;-86
2022/09/06 11:46:34;;;;;;;7.57;4.13;;;26.30;98.90;;;;;;4978394;28;20452;-85
2022/09/06 11:49:27;;;;;;;9.20;4.80;;;26.20;99.30;;;;;;4975232;28;20483;-85
2022/09/06 11:51:55;;;;;;;7.30;3.87;;;26.30;98.90;;;;;;4978077;28;20531;-86
2022/09/06 11:54:33;;;;;;;7.00;5.00;;;26.40;98.70;;;;;;4982548;28;20535;-86
2022/09/06 11:57:07;;;;;;;7.57;3.90;;;26.60;98.80;;;;;;4979938;28;20188;-86
2022/09/06 11:59:38;;;;;;;6.13;4.50;;;26.70;98.00;;;;;;4980001;28;20444;-86
2022/09/06 12:02:27;;;;;;;4.43;4.00;;;26.60;98.00;;;;;;4999868;28;20563;-86
2022/09/06 12:05:05;;;;;;;7.77;3.87;;;26.50;98.00;;;;;;4996424;28;20485;-85
2022/09/06 12:07:36;;;;;;;8.20;4.00;;;26.60;97.20;;;;;;4979825;28;20447;-84
2022/09/06 12:10:30;;;;;;;8.97;3.50;;;26.70;97.40;;;;;;4976444;28;20443;-85
2022/09/06 12:12:58;;;;;;;8.07;3.90;;;26.50;97.30;;;;;;4982713;28;20669;-84
2022/09/06 12:15:44;;;;;;;4.63;3.97;;;26.20;97.70;;;;;;4980093;28;20447;-84
2022/09/06 12:18:41;;;;;;;6.90;3.80;;;26.40;97.80;;;;;;4975674;28;20458;-84
2022/09/06 12:21:08;;;;;;;5.00;3.60;;;26.70;96.80;;;;;;4993886;28;20501;-84
2022/09/06 12:23:33;;;;;;;6.57;4.07;;;27.10;97.00;;;;;;4978875;28;20674;-84
2022/09/06 12:26:04;;;;;;;5.73;4.00;;;27.50;95.20;;;;;;4978669;28;21487;-84
2022/09/06 12:28:40;;;;;;;4.00;3.30;;;27.70;95.00;;;;;;4976428;28;20182;-84
2022/09/06 12:31:26;;;;;;;5.87;3.80;;;27.90;95.60;;;;;;4992820;28;20566;-85
2022/09/06 12:34:02;;;;;;;4.80;2.93;;;28.40;93.80;;;;;;4995611;28;20435;-85
2022/09/06 12:36:30;;;;;;;9.70;3.70;;;28.70;92.80;;;;;;4976898;28;20445;-84
2022/09/06 12:38:59;;;;;;;5.70;3.13;;;28.80;91.80;;;;;;4983220;28;20444;-85
2022/09/06 12:41:40;;;;;;;6.13;3.03;;;28.80;92.00;;;;;;4975473;28;20451;-85
2022/09/06 12:44:06;;;;;;;5.37;3.23;;;28.50;91.30;;;;;;4991826;28;20561;-84
2022/09/06 12:46:38;;;;;;;5.90;3.30;;;28.10;92.30;;;;;;4989957;28;20457;-84
2022/09/06 12:49:10;;;;;;;3.60;3.00;;;27.90;92.50;;;;;;4981889;28;20448;-85
2022/09/06 12:51:37;;;;;;;6.10;3.37;;;28.30;91.70;;;;;;4978857;28;20502;-84
2022/09/06 12:54:05;;;;;;;7.30;3.47;;;28.40;91.60;;;;;;4980080;28;20444;-84
2022/09/06 12:56:36;;;;;;;4.50;3.60;;;28.60;91.60;;;;;;4974432;28;20432;-84
2022/09/06 12:59:13;;;;;;;7.07;3.30;;;28.90;91.50;;;;;;4977164;28;20459;-84
2022/09/06 13:01:54;;;;;;;5.80;3.27;;;29.10;91.30;;;;;;4974150;28;20459;-84
2022/09/06 13:04:25;;;;;;;5.43;3.27;;;29.40;91.10;;;;;;4982601;28;20496;-84
2022/09/06 13:06:51;;;;;;;5.60;3.50;;;29.60;91.20;;;;;;4980080;28;20869;-85
2022/09/06 13:09:19;;;;;;;3.60;3.30;;;29.80;90.60;;;;;;4976113;28;20477;-84
2022/09/06 13:11:50;;;;;;;5.77;3.13;;;29.20;90.30;;;;;;4978477;28;20181;-84